createdAt,value
2023-07-02T00:02:22.292Z,99360.44
2023-07-02T00:05:31.154Z,99358.53
2023-07-02T00:08:39.770Z,99355.00
2023-07-02T00:11:54.136Z,99360.09
2023-07-02T00:15:10.182Z,99365.16
2023-07-02T00:18:44.145Z,99356.16
2023-07-02T00:21:52.945Z,99352.25
2023-07-02T00:25:01.176Z,99353.44
2023-07-02T00:28:16.165Z,99347.56
2023-07-02T00:31:31.331Z,99350.69
2023-07-02T00:34:40.192Z,99354.63
2023-07-02T00:37:49.892Z,99349.53
2023-07-02T00:41:05.156Z,99340.53
2023-07-02T00:44:13.172Z,99335.50
2023-07-02T00:47:21.748Z,99344.47
2023-07-02T00:50:37.135Z,99343.28
2023-07-02T00:53:47.085Z,99346.44
2023-07-02T00:56:55.191Z,99351.09
2023-07-02T01:00:10.162Z,99347.19
2023-07-02T01:03:12.781Z,99350.72
2023-07-02T01:06:31.154Z,99347.97
2023-07-02T01:09:39.198Z,99353.03
2023-07-02T01:12:56.186Z,99356.53
2023-07-02T01:16:05.218Z,99354.19
2023-07-02T01:19:21.197Z,99348.75
2023-07-02T01:22:36.166Z,99356.53
2023-07-02T01:25:44.837Z,99356.13
2023-07-02T01:28:53.169Z,99349.88
2023-07-02T01:32:01.855Z,99355.34
2023-07-02T01:35:17.173Z,99356.13
2023-07-02T01:38:25.196Z,99350.69
2023-07-02T01:41:52.222Z,99351.47
2023-07-02T01:45:00.805Z,99342.09
2023-07-02T01:48:09.212Z,99356.13
2023-07-02T01:51:31.206Z,99349.09
2023-07-02T01:54:41.189Z,99347.56
2023-07-02T01:57:49.800Z,99351.06
2023-07-02T02:01:04.222Z,99345.59
2023-07-02T02:04:06.194Z,99355.72
2023-07-02T02:07:21.186Z,99365.47
2023-07-02T02:10:36.192Z,99354.97
2023-07-02T02:13:44.685Z,99353.37
2023-07-02T02:16:59.248Z,99348.31
2023-07-02T02:20:08.610Z,99344.78
2023-07-02T02:23:17.203Z,99347.16
2023-07-02T02:26:32.199Z,99347.53
2023-07-02T02:29:40.758Z,99345.91
2023-07-02T02:32:55.255Z,99342.41
2023-07-02T02:36:04.044Z,99338.13
2023-07-02T02:39:12.238Z,99341.62
2023-07-02T02:42:20.683Z,99341.62
2023-07-02T02:45:29.204Z,99339.66
2023-07-02T02:48:44.215Z,99336.16
2023-07-02T02:51:52.470Z,99331.06
2023-07-02T02:55:07.215Z,99328.34
2023-07-02T02:58:09.138Z,99335.34
2023-07-02T03:01:24.214Z,99325.97
2023-07-02T03:04:26.514Z,99327.12
2023-07-02T03:07:41.198Z,99334.50
2023-07-02T03:10:50.462Z,99332.94
2023-07-02T03:14:05.199Z,99334.50
2023-07-02T03:17:07.059Z,99325.13
2023-07-02T03:20:22.188Z,99336.81
2023-07-02T03:23:24.104Z,99341.47
2023-07-02T03:26:39.201Z,99340.28
2023-07-02T03:29:47.904Z,99349.22
2023-07-02T03:32:56.244Z,99352.38
2023-07-02T03:36:05.062Z,99341.06
2023-07-02T03:39:20.221Z,99344.97
2023-07-02T03:42:28.732Z,99343.03
2023-07-02T03:45:43.246Z,99354.72
2023-07-02T03:48:51.251Z,99360.22
2023-07-02T03:52:07.033Z,99361.78
2023-07-02T03:55:16.247Z,99361.03
2023-07-02T03:58:24.856Z,99366.47
2023-07-02T04:01:39.232Z,99361.81
2023-07-02T04:04:47.879Z,99364.91
2023-07-02T04:07:56.233Z,99358.69
2023-07-02T04:11:11.228Z,99370.41
2023-07-02T04:14:13.161Z,99373.53
2023-07-02T04:17:28.241Z,99370.78
2023-07-02T04:20:43.234Z,99376.28
2023-07-02T04:23:51.734Z,99378.25
2023-07-02T04:27:48.578Z,99379.06
2023-07-02T04:30:29.032Z,99379.47
2023-07-02T04:33:44.239Z,99381.03
2023-07-02T04:36:53.932Z,99372.06
2023-07-02T04:40:09.319Z,99386.91
2023-07-02T04:43:17.796Z,99390.84
2023-07-02T04:46:33.391Z,99388.50
2023-07-02T04:49:55.212Z,99396.72
2023-07-02T04:53:10.249Z,99395.53
2023-07-02T04:56:18.810Z,99406.06
2023-07-02T04:59:28.249Z,99407.66
2023-07-02T05:02:43.259Z,99413.50
2023-07-02T05:05:51.818Z,99407.25
2023-07-02T05:09:06.248Z,99409.59
2023-07-02T05:12:14.853Z,99402.97
2023-07-02T05:15:23.246Z,99410.41
2023-07-02T05:18:31.773Z,99414.31
2023-07-02T05:21:46.237Z,99406.50
2023-07-02T05:24:54.801Z,99412.75
2023-07-02T05:28:09.263Z,99412.00
2023-07-02T05:31:24.308Z,99413.53
2023-07-02T05:34:32.959Z,99431.13
2023-07-02T05:37:41.238Z,99429.94
2023-07-02T05:40:56.237Z,99439.75
2023-07-02T05:44:11.229Z,99435.44
2023-07-02T05:47:27.443Z,99437.00
2023-07-02T05:50:37.247Z,99440.47
2023-07-02T05:53:45.801Z,99436.59
2023-07-02T05:56:54.251Z,99438.50
2023-07-02T06:00:08.954Z,99434.22
2023-07-02T06:03:25.314Z,99428.75
2023-07-02T06:06:27.472Z,99439.22
2023-07-02T06:09:42.259Z,99447.88
2023-07-02T06:12:50.826Z,99452.56
2023-07-02T06:15:59.266Z,99451.84
2023-07-02T06:19:14.280Z,99447.91
2023-07-02T06:22:16.209Z,99451.81
2023-07-02T06:25:31.298Z,99445.44
2023-07-02T06:28:47.242Z,99459.47
2023-07-02T06:31:49.178Z,99453.56
2023-07-02T06:35:04.270Z,99457.34
2023-07-02T06:38:06.114Z,99465.75
2023-07-02T06:41:23.308Z,99459.44
2023-07-02T06:44:31.286Z,99464.09
2023-07-02T06:47:46.287Z,99461.06
2023-07-02T06:50:55.319Z,99469.66
2023-07-02T06:54:04.023Z,99463.41
2023-07-02T06:57:12.300Z,99465.31
2023-07-02T07:00:21.123Z,99469.56
2023-07-02T07:03:36.360Z,99478.13
2023-07-02T07:06:51.363Z,99478.97
2023-07-02T07:09:59.807Z,99478.97
2023-07-02T07:13:14.278Z,99488.72
2023-07-02T07:16:16.118Z,99487.97
2023-07-02T07:19:31.281Z,99490.66
2023-07-02T07:22:39.809Z,99494.59
2023-07-02T07:25:54.281Z,99497.59
2023-07-02T07:29:09.308Z,99492.16
2023-07-02T07:32:24.374Z,99494.38
2023-07-02T07:35:39.300Z,99489.41
2023-07-02T07:38:41.309Z,99492.31
2023-07-02T07:41:56.289Z,99498.91
2023-07-02T07:44:58.131Z,99499.75
2023-07-02T07:48:13.288Z,99489.41
2023-07-02T07:51:35.263Z,99497.06
2023-07-02T07:54:50.290Z,99500.88
2023-07-02T07:58:05.358Z,99501.66
2023-07-02T08:01:13.826Z,99496.78
2023-07-02T08:04:24.353Z,99498.66
2023-07-02T08:07:39.299Z,99498.69
2023-07-02T08:10:41.357Z,99504.78
2023-07-02T08:13:56.355Z,99506.63
2023-07-02T08:17:05.204Z,99502.16
2023-07-02T08:20:14.389Z,99506.19
2023-07-02T08:23:22.871Z,99519.38
2023-07-02T08:26:37.323Z,99526.16
2023-07-02T08:29:39.161Z,99522.47
2023-07-02T08:32:54.366Z,99520.66
2023-07-02T08:36:09.327Z,99524.62
2023-07-02T08:39:18.312Z,99522.69
2023-07-02T08:42:27.215Z,99528.84
2023-07-02T08:45:43.322Z,99529.84
2023-07-02T08:48:45.564Z,99522.38
2023-07-02T08:52:00.303Z,99529.41
2023-07-02T08:55:02.211Z,99534.13
2023-07-02T08:58:18.324Z,99551.50
2023-07-02T09:01:20.395Z,99551.28
2023-07-02T09:04:35.339Z,99551.34
2023-07-02T09:07:49.783Z,99538.66
2023-07-02T09:11:13.331Z,99550.87
2023-07-02T09:14:30.415Z,99560.44
2023-07-02T09:17:45.376Z,99558.72
2023-07-02T09:20:48.363Z,99557.75
2023-07-02T09:24:03.312Z,99557.25
2023-07-02T09:27:18.327Z,99557.75
2023-07-02T09:30:26.318Z,99551.44
2023-07-02T09:33:41.598Z,99556.47
2023-07-02T09:36:50.028Z,99557.34
2023-07-02T09:39:59.336Z,99559.37
2023-07-02T09:43:08.000Z,99564.81
2023-07-02T09:46:16.355Z,99558.41
2023-07-02T09:49:33.342Z,99551.47
2023-07-02T09:52:48.337Z,99556.38
2023-07-02T09:56:03.333Z,99549.34
2023-07-02T09:59:11.969Z,99552.31
2023-07-02T10:02:26.426Z,99549.09
2023-07-02T10:05:35.455Z,99559.34
2023-07-02T10:09:03.361Z,99545.47
2023-07-02T10:12:31.486Z,99554.06
2023-07-02T10:15:40.122Z,99558.94
2023-07-02T10:18:48.454Z,99547.03
2023-07-02T10:22:04.912Z,99551.97
2023-07-02T10:25:13.338Z,99539.75
2023-07-02T10:28:28.352Z,99545.75
2023-07-02T10:31:43.376Z,99537.00
2023-07-02T10:34:58.359Z,99544.47
2023-07-02T10:38:07.896Z,99538.97
2023-07-02T10:41:35.353Z,99543.37
2023-07-02T10:44:54.260Z,99549.25
2023-07-02T10:48:16.359Z,99542.41
2023-07-02T10:51:38.616Z,99540.28
2023-07-02T10:54:48.070Z,99536.28
2023-07-02T10:58:13.383Z,99520.34
2023-07-02T11:01:29.974Z,99532.19
2023-07-02T11:04:45.487Z,99520.03
2023-07-02T11:07:47.522Z,99523.75
2023-07-02T11:11:16.367Z,99523.47
2023-07-02T11:14:41.365Z,99516.81
2023-07-02T11:17:50.093Z,99517.72
2023-07-02T11:21:05.767Z,99524.16
2023-07-02T11:24:13.947Z,99514.91
2023-07-02T11:27:29.377Z,99513.69
2023-07-02T11:30:46.505Z,99519.63
2023-07-02T11:33:55.363Z,99524.69
2023-07-02T11:37:11.396Z,99526.94
2023-07-02T11:40:20.129Z,99522.19
2023-07-02T11:43:35.381Z,99535.16
2023-07-02T11:46:50.384Z,99534.25
2023-07-02T11:50:20.562Z,99531.06
2023-07-02T11:53:40.634Z,99522.88
2023-07-02T11:56:55.405Z,99520.75
2023-07-02T11:59:57.395Z,99518.50
2023-07-02T12:03:12.439Z,99519.50
2023-07-02T12:06:21.084Z,99520.87
2023-07-02T12:09:36.383Z,99515.66
2023-07-02T12:12:52.400Z,99513.81
2023-07-02T12:15:54.278Z,99519.34
2023-07-02T12:19:09.457Z,99515.81
2023-07-02T12:22:11.322Z,99503.31
2023-07-02T12:25:29.506Z,99504.00
2023-07-02T12:28:31.354Z,99501.47
2023-07-02T12:31:46.392Z,99506.66
2023-07-02T12:34:55.033Z,99510.72
2023-07-02T12:38:03.399Z,99507.75
2023-07-02T12:41:11.973Z,99502.38
2023-07-02T12:44:20.427Z,99506.41
2023-07-02T12:47:28.977Z,99521.47
2023-07-02T12:50:45.403Z,99517.19
2023-07-02T12:54:00.414Z,99518.31
2023-07-02T12:57:08.973Z,99510.53
2023-07-02T13:00:23.477Z,99523.81
2023-07-02T13:03:32.537Z,99535.41
2023-07-02T13:06:47.403Z,99524.41
2023-07-02T13:09:56.178Z,99524.38
2023-07-02T13:13:22.919Z,99523.84
2023-07-02T13:16:32.498Z,99530.84
2023-07-02T13:19:41.191Z,99522.53
2023-07-02T13:22:49.420Z,99543.72
2023-07-02T13:26:05.417Z,99541.03
2023-07-02T13:29:14.982Z,99531.09
2023-07-02T13:32:23.444Z,99525.62
2023-07-02T13:35:32.197Z,99529.22
2023-07-02T13:38:41.416Z,99528.69
2023-07-02T13:41:51.442Z,99520.81
2023-07-02T13:45:00.403Z,99520.34
2023-07-02T13:48:15.453Z,99523.72
2023-07-02T13:51:24.411Z,99514.19
2023-07-02T13:54:39.900Z,99517.66
2023-07-02T13:57:54.452Z,99505.97
2023-07-02T14:00:56.689Z,99518.03
2023-07-02T14:04:11.515Z,99518.97
2023-07-02T14:07:20.186Z,99518.28
2023-07-02T14:10:36.421Z,99531.38
2023-07-02T14:13:45.225Z,99528.41
2023-07-02T14:16:53.444Z,99528.63
2023-07-02T14:20:03.264Z,99517.94
2023-07-02T14:23:12.439Z,99523.16
2023-07-02T14:26:21.160Z,99521.81
2023-07-02T14:29:36.440Z,99513.91
2023-07-02T14:32:45.255Z,99527.69
2023-07-02T14:36:00.561Z,99517.25
2023-07-02T14:39:34.470Z,99523.16
2023-07-02T14:42:49.421Z,99525.91
2023-07-02T14:46:07.451Z,99529.25
2023-07-02T14:49:22.470Z,99529.00
2023-07-02T14:52:37.478Z,99517.03
2023-07-02T14:55:53.463Z,99530.00
2023-07-02T14:59:01.485Z,99525.12
2023-07-02T15:02:10.052Z,99535.81
2023-07-02T15:05:18.613Z,99536.66
2023-07-02T15:08:27.013Z,99548.63
2023-07-02T15:11:41.562Z,99538.66
2023-07-02T15:14:56.446Z,99537.94
2023-07-02T15:18:05.138Z,99538.75
2023-07-02T15:21:20.477Z,99535.22
2023-07-02T15:24:29.106Z,99531.59
2023-07-02T15:27:37.465Z,99522.94
2023-07-02T15:30:46.017Z,99535.56
2023-07-02T15:33:54.457Z,99538.56
2023-07-02T15:37:09.464Z,99539.31
2023-07-02T15:40:18.116Z,99536.00
2023-07-02T15:43:26.527Z,99543.59
2023-07-02T15:46:41.506Z,99546.81
2023-07-02T15:49:49.561Z,99550.13
2023-07-02T15:53:04.751Z,99550.69
2023-07-02T15:56:19.477Z,99545.69
2023-07-02T15:59:28.177Z,99554.50
2023-07-02T16:02:36.602Z,99558.97
2023-07-02T16:05:53.747Z,99561.50
2023-07-02T16:08:58.499Z,99556.88
2023-07-02T16:12:15.551Z,99552.53
2023-07-02T16:15:17.552Z,99551.25
2023-07-02T16:18:32.494Z,99557.63
2023-07-02T16:21:47.503Z,99561.00
2023-07-02T16:24:55.538Z,99567.25
2023-07-02T16:28:04.165Z,99575.16
2023-07-02T16:31:21.113Z,99589.09
2023-07-02T16:34:24.736Z,99582.44
2023-07-02T16:37:39.517Z,99578.50
2023-07-02T16:40:48.706Z,99586.34
2023-07-02T16:44:03.495Z,99587.38
2023-07-02T16:47:12.253Z,99585.69
2023-07-02T16:50:28.495Z,99599.34
2023-07-02T16:53:50.493Z,99592.56
2023-07-02T16:56:58.302Z,99583.03
2023-07-02T17:00:15.558Z,99609.88
2023-07-02T17:03:17.827Z,99598.25
2023-07-02T17:06:32.497Z,99606.06
2023-07-02T17:09:48.496Z,99605.75
2023-07-02T17:13:03.510Z,99601.50
2023-07-02T17:16:18.518Z,99597.59
2023-07-02T17:19:29.891Z,99589.13
2023-07-02T17:22:38.511Z,99600.41
2023-07-02T17:25:47.651Z,99609.69
2023-07-02T17:29:02.510Z,99603.84
2023-07-02T17:32:11.572Z,99611.72
2023-07-02T17:35:20.531Z,99615.19
2023-07-02T17:38:29.509Z,99603.56
2023-07-02T17:41:45.522Z,99618.38
2023-07-02T17:44:54.498Z,99620.50
2023-07-02T17:48:11.537Z,99612.81
2023-07-02T17:51:20.303Z,99617.19
2023-07-02T17:54:50.523Z,99618.84
2023-07-02T17:58:05.508Z,99626.38
2023-07-02T18:01:07.458Z,99627.56
2023-07-02T18:04:23.649Z,99636.66
2023-07-02T18:07:35.523Z,99636.34
2023-07-02T18:10:57.430Z,99641.47
2023-07-02T18:14:07.531Z,99637.94
2023-07-02T18:17:23.554Z,99638.03
2023-07-02T18:20:38.551Z,99635.72
2023-07-02T18:23:53.502Z,99649.87
2023-07-02T18:26:55.921Z,99657.03
2023-07-02T18:30:11.554Z,99667.25
2023-07-02T18:33:14.335Z,99669.62
2023-07-02T18:36:30.517Z,99670.44
2023-07-02T18:39:48.531Z,99674.38
2023-07-02T18:42:51.601Z,99674.00
2023-07-02T18:46:08.617Z,99682.69
2023-07-02T18:49:18.526Z,99683.88
2023-07-02T18:52:35.573Z,99689.41
2023-07-02T18:56:11.546Z,99692.56
2023-07-02T18:59:14.828Z,99700.78
2023-07-02T19:02:33.410Z,99701.22
2023-07-02T19:05:43.333Z,99702.38
2023-07-02T19:08:59.560Z,99708.28
2023-07-02T19:12:16.684Z,99705.16
2023-07-02T19:15:25.435Z,99718.09
2023-07-02T19:18:34.754Z,99727.44
2023-07-02T19:21:43.328Z,99735.28
2023-07-02T19:24:51.586Z,99736.03
2023-07-02T19:28:07.619Z,99738.81
2023-07-02T19:31:22.605Z,99743.47
2023-07-02T19:34:31.536Z,99754.44
2023-07-02T19:37:40.145Z,99741.91
2023-07-02T19:41:04.560Z,99762.63
2023-07-02T19:44:15.167Z,99759.91
2023-07-02T19:47:30.603Z,99760.28
2023-07-02T19:50:39.567Z,99770.03
2023-07-02T19:53:54.573Z,99777.06
2023-07-02T19:57:02.641Z,99774.72
2023-07-02T20:00:12.041Z,99767.28
2023-07-02T20:03:21.655Z,99778.56
2023-07-02T20:06:32.124Z,99767.22
2023-07-02T20:09:48.561Z,99767.56
2023-07-02T20:12:50.661Z,99784.78
2023-07-02T20:16:08.631Z,99785.94
2023-07-02T20:19:20.196Z,99793.31
2023-07-02T20:22:30.621Z,99795.66
2023-07-02T20:25:50.101Z,99798.00
2023-07-02T20:28:59.584Z,99793.31
2023-07-02T20:32:08.642Z,99801.13
2023-07-02T20:35:23.573Z,99800.34
2023-07-02T20:38:32.583Z,99809.69
2023-07-02T20:41:47.571Z,99803.81
2023-07-02T20:45:02.572Z,99822.16
2023-07-02T20:48:05.410Z,99815.16
2023-07-02T20:51:20.608Z,99820.59
2023-07-02T20:54:28.954Z,99825.25
2023-07-02T20:57:43.574Z,99826.00
2023-07-02T21:01:03.381Z,99821.28
2023-07-02T21:04:11.723Z,99818.50
2023-07-02T21:07:26.598Z,99821.62
2023-07-02T21:10:28.447Z,99827.91
2023-07-02T21:13:43.576Z,99832.06
2023-07-02T21:16:51.673Z,99830.41
2023-07-02T21:20:01.998Z,99845.19
2023-07-02T21:23:16.587Z,99844.44
2023-07-02T21:26:25.130Z,99838.09
2023-07-02T21:29:39.576Z,99849.84
2023-07-02T21:32:47.637Z,99850.19
2023-07-02T21:36:10.595Z,99854.78
2023-07-02T21:39:12.503Z,99856.41
2023-07-02T21:42:27.610Z,99868.09
2023-07-02T21:45:35.632Z,99875.09
2023-07-02T21:48:44.116Z,99869.63
2023-07-02T21:51:52.599Z,99866.03
2023-07-02T21:55:14.612Z,99868.38
2023-07-02T21:58:23.627Z,99878.47
2023-07-02T22:01:38.706Z,99878.00
2023-07-02T22:04:47.347Z,99887.78
2023-07-02T22:08:02.594Z,99877.59
2023-07-02T22:11:20.691Z,99886.91
2023-07-02T22:14:36.600Z,99885.34
2023-07-02T22:17:51.600Z,99889.94
2023-07-02T22:20:59.608Z,99893.41
2023-07-02T22:24:08.135Z,99898.41
2023-07-02T22:27:22.604Z,99886.72
2023-07-02T22:30:37.593Z,99899.97
2023-07-02T22:33:45.637Z,99909.28
2023-07-02T22:36:54.210Z,99902.63
2023-07-02T22:40:02.634Z,99904.22
2023-07-02T22:43:11.176Z,99902.63
2023-07-02T22:46:19.687Z,99902.91
2023-07-02T22:49:28.222Z,99903.72
2023-07-02T22:52:42.635Z,99907.63
2023-07-02T22:55:57.613Z,99906.84
2023-07-02T22:59:06.239Z,99904.06
2023-07-02T23:02:14.657Z,99904.47
2023-07-02T23:05:29.706Z,99902.00
2023-07-02T23:08:38.615Z,99903.25
2023-07-02T23:11:48.176Z,99907.50
2023-07-02T23:14:56.600Z,99897.34
2023-07-02T23:18:11.600Z,99905.47
2023-07-02T23:21:13.482Z,99899.59
2023-07-02T23:24:28.632Z,99902.31
2023-07-02T23:27:30.560Z,99912.81
2023-07-02T23:30:45.618Z,99905.78
2023-07-02T23:33:54.260Z,99906.91
2023-07-02T23:37:08.618Z,99910.81
2023-07-02T23:40:11.019Z,99905.66
2023-07-02T23:43:25.603Z,99905.19
2023-07-02T23:46:27.495Z,99904.13
2023-07-02T23:49:42.638Z,99906.44
2023-07-02T23:52:48.513Z,99902.19
2023-07-02T23:56:03.641Z,99911.91
2023-07-02T23:59:11.639Z,99919.72
